Time;durP1;ratioP1;P1;durP2;ratioP2;P2;SDS_P1;SDS_P2;PMS_P1;PMS_P2;Temp;Humidity;BMP_temperature;BMP_pressure;BME280_temperature;BME280_humidity;BME280_pressure;Samples;Min_cycle;Max_cycle;Signal;HPM_P1;HPM_P2
2022/09/22 00:01:16;;;;;;;14.38;8.00;;;8.40;99.90;;;;;;5097518;28;20476;-73
2022/09/22 00:03:48;;;;;;;17.20;8.55;;;8.30;99.90;;;;;;5098298;28;20519;-75
2022/09/22 00:06:17;;;;;;;16.42;8.90;;;8.30;99.90;;;;;;5097870;28;20401;-73
2022/09/22 00:08:46;;;;;;;16.87;8.47;;;8.30;99.90;;;;;;5097962;28;20378;-74
2022/09/22 00:11:17;;;;;;;16.90;8.80;;;8.20;99.90;;;;;;5097875;28;20388;-75
2022/09/22 00:13:54;;;;;;;17.52;8.90;;;8.30;99.90;;;;;;5097816;28;20858;-74
2022/09/22 00:16:24;;;;;;;18.63;9.68;;;8.20;99.90;;;;;;5097702;28;20417;-74
2022/09/22 00:18:50;;;;;;;18.63;10.27;;;8.40;99.90;;;;;;5097059;28;20390;-72
2022/09/22 00:21:18;;;;;;;15.27;9.05;;;8.30;99.90;;;;;;5102776;28;20382;-75
2022/09/22 00:23:44;;;;;;;17.65;9.50;;;8.40;99.90;;;;;;5107485;28;20410;-72
2022/09/22 00:26:15;;;;;;;19.92;9.30;;;8.40;99.90;;;;;;5097301;28;20401;-73
2022/09/22 00:28:43;;;;;;;14.55;8.80;;;8.40;99.90;;;;;;5096313;28;20750;-73
2022/09/22 00:31:21;;;;;;;16.13;8.90;;;8.50;99.90;;;;;;5095777;28;20378;-73
2022/09/22 00:33:47;;;;;;;17.17;8.40;;;8.50;99.90;;;;;;5096444;28;20382;-73
2022/09/22 00:36:15;;;;;;;17.58;9.20;;;8.50;99.90;;;;;;5095978;28;20382;-75
2022/09/22 00:38:41;;;;;;;16.67;9.20;;;8.50;99.90;;;;;;5095608;28;20410;-74
2022/09/22 00:41:09;;;;;;;18.10;9.90;;;8.40;99.90;;;;;;5095795;28;20417;-73
2022/09/22 00:43:37;;;;;;;15.65;9.23;;;8.30;99.90;;;;;;5096780;28;20389;-76
2022/09/22 00:46:23;;;;;;;18.30;9.60;;;8.20;99.90;;;;;;5096887;28;20410;-74
2022/09/22 00:48:58;;;;;;;15.00;8.85;;;8.20;99.90;;;;;;5097065;28;20769;-72
2022/09/22 00:51:31;;;;;;;17.50;8.80;;;8.20;99.90;;;;;;5096733;28;20413;-72
2022/09/22 00:53:59;;;;;;;11.25;8.25;;;8.20;99.90;;;;;;5097519;28;20434;-74
2022/09/22 00:56:31;;;;;;;20.02;8.57;;;8.40;99.90;;;;;;5097252;28;20382;-75
2022/09/22 00:59:05;;;;;;;17.08;8.00;;;8.70;99.90;;;;;;5097462;28;20381;-71
2022/09/22 01:01:38;;;;;;;12.98;7.28;;;8.50;99.90;;;;;;5097578;28;20377;-74
2022/09/22 01:04:04;;;;;;;18.07;8.20;;;8.40;99.90;;;;;;5099258;28;20405;-75
2022/09/22 01:06:29;;;;;;;17.45;8.68;;;8.40;99.90;;;;;;5099812;28;20441;-74
2022/09/22 01:08:56;;;;;;;12.30;8.27;;;8.30;99.90;;;;;;5098075;28;20383;-74
2022/09/22 01:11:22;;;;;;;17.13;9.10;;;8.20;99.90;;;;;;5095440;28;20386;-73
2022/09/22 01:14:19;;;;;;;19.95;8.73;;;8.10;99.90;;;;;;5094409;28;20475;-74
2022/09/22 01:16:56;;;;;;;16.30;8.27;;;8.10;99.90;;;;;;5096491;28;20381;-72
2022/09/22 01:20:01;;;;;;;16.77;8.38;;;8.00;99.90;;;;;;5095874;28;20870;-74
2022/09/22 01:22:48;;;;;;;14.52;7.72;;;8.00;99.90;;;;;;5096288;28;20386;-74
2022/09/22 01:25:34;;;;;;;13.13;7.80;;;8.00;99.90;;;;;;5095664;28;20466;-74
2022/09/22 01:28:39;;;;;;;12.38;8.20;;;7.90;99.90;;;;;;5096909;28;20378;-73
2022/09/22 01:31:13;;;;;;;12.75;7.40;;;7.80;99.90;;;;;;5033094;28;20391;-75
2022/09/22 01:33:56;;;;;;;14.90;7.93;;;7.90;99.90;;;;;;5032773;28;20387;-74
2022/09/22 01:36:36;;;;;;;12.50;7.30;;;7.80;99.90;;;;;;5072599;28;20389;-74
2022/09/22 01:39:16;;;;;;;12.10;7.35;;;7.90;99.90;;;;;;5095177;28;20378;-74
2022/09/22 01:42:00;;;;;;;12.55;6.40;;;7.80;99.90;;;;;;5094047;28;20393;-74
2022/09/22 01:44:33;;;;;;;15.15;7.07;;;7.80;99.90;;;;;;5096133;28;20732;-75
2022/09/22 01:47:07;;;;;;;11.07;7.10;;;7.80;99.90;;;;;;5099035;28;20773;-74
2022/09/22 01:49:38;;;;;;;12.63;6.72;;;7.80;99.90;;;;;;5098495;28;20386;-74
2022/09/22 01:52:13;;;;;;;12.77;6.70;;;7.90;99.90;;;;;;5098179;28;20432;-74
2022/09/22 01:54:46;;;;;;;12.85;6.45;;;7.90;99.90;;;;;;5100170;28;20366;-74
2022/09/22 01:57:19;;;;;;;10.77;6.82;;;7.90;99.90;;;;;;5101727;28;20464;-74
2022/09/22 01:59:50;;;;;;;11.57;6.40;;;7.80;99.90;;;;;;5101972;28;20386;-74
2022/09/22 02:02:26;;;;;;;12.75;6.68;;;7.80;99.90;;;;;;5098667;28;20400;-73
2022/09/22 02:04:55;;;;;;;10.52;6.15;;;7.80;99.90;;;;;;5100021;28;20443;-73
2022/09/22 02:07:34;;;;;;;12.82;6.68;;;7.80;99.90;;;;;;5098961;28;20413;-74
2022/09/22 02:10:08;;;;;;;11.97;5.90;;;7.80;99.90;;;;;;5100977;28;20404;-72
2022/09/22 02:12:36;;;;;;;13.75;6.00;;;7.80;99.90;;;;;;5099054;28;20833;-72
2022/09/22 02:15:03;;;;;;;12.30;6.30;;;7.90;99.90;;;;;;5099153;28;20785;-74
2022/09/22 02:17:30;;;;;;;11.52;5.95;;;7.80;99.90;;;;;;5098505;28;20762;-72
2022/09/22 02:19:56;;;;;;;11.57;6.10;;;7.80;99.90;;;;;;5099002;28;20787;-77
2022/09/22 02:22:21;;;;;;;9.13;5.93;;;7.70;99.90;;;;;;5098634;28;20396;-75
2022/09/22 02:24:48;;;;;;;11.97;5.80;;;7.70;99.90;;;;;;5098202;28;20437;-74
2022/09/22 02:27:34;;;;;;;10.55;5.90;;;7.80;99.90;;;;;;5098783;28;20498;-73
2022/09/22 02:30:11;;;;;;;14.90;5.97;;;8.00;99.90;;;;;;5098599;28;20389;-74
2022/09/22 02:32:41;;;;;;;13.40;6.10;;;8.00;99.90;;;;;;5098497;28;20378;-74
2022/09/22 02:35:08;;;;;;;11.30;6.50;;;7.90;99.90;;;;;;5098525;28;20852;-72
2022/09/22 02:38:08;;;;;;;9.27;6.10;;;7.90;99.90;;;;;;5097726;28;20394;-75
2022/09/22 02:41:03;;;;;;;9.45;5.93;;;7.80;99.90;;;;;;5100425;28;20483;-74
2022/09/22 02:43:48;;;;;;;14.63;6.22;;;7.80;99.90;;;;;;5099523;28;20962;-74
2022/09/22 02:46:19;;;;;;;10.80;6.20;;;7.80;99.90;;;;;;5100455;28;20398;-75
2022/09/22 02:48:51;;;;;;;10.10;5.40;;;7.80;99.90;;;;;;5100284;28;20405;-74
2022/09/22 02:51:17;;;;;;;14.00;6.10;;;7.80;99.90;;;;;;5097530;28;20473;-74
2022/09/22 02:53:43;;;;;;;11.55;5.53;;;7.80;99.90;;;;;;5090002;28;20477;-74
2022/09/22 02:56:09;;;;;;;10.68;6.30;;;7.80;99.90;;;;;;5081467;28;20765;-73
2022/09/22 02:58:35;;;;;;;14.40;6.50;;;7.80;99.90;;;;;;5080408;28;20407;-73
2022/09/22 03:01:01;;;;;;;12.43;5.30;;;7.80;99.90;;;;;;5082023;28;20388;-72
2022/09/22 03:03:27;;;;;;;7.88;5.25;;;7.80;99.90;;;;;;5102257;28;20403;-74
2022/09/22 03:05:53;;;;;;;9.68;5.35;;;8.00;99.90;;;;;;5096661;28;20410;-72
2022/09/22 03:08:18;;;;;;;13.25;5.32;;;8.00;99.90;;;;;;5094284;28;20500;-73
2022/09/22 03:10:44;;;;;;;10.80;5.30;;;8.10;99.90;;;;;;5094284;28;20386;-74
2022/09/22 03:13:09;;;;;;;11.10;5.50;;;8.00;99.90;;;;;;5092650;28;21004;-73
2022/09/22 03:15:35;;;;;;;7.20;5.55;;;8.00;99.90;;;;;;5092544;28;20415;-75
2022/09/22 03:18:00;;;;;;;8.88;5.68;;;8.00;99.90;;;;;;5087605;28;20437;-74
2022/09/22 03:20:26;;;;;;;9.57;5.00;;;7.90;99.90;;;;;;5080748;28;20398;-73
2022/09/22 03:22:51;;;;;;;8.80;5.70;;;7.90;99.90;;;;;;5074984;28;20382;-74
2022/09/22 03:25:17;;;;;;;11.57;6.70;;;7.90;99.90;;;;;;5073363;28;20388;-73
2022/09/22 03:27:43;;;;;;;8.90;5.90;;;7.90;99.90;;;;;;5074305;28;20396;-75
2022/09/22 03:30:09;;;;;;;9.15;5.15;;;7.90;99.90;;;;;;5083361;28;20390;-73
2022/09/22 03:32:35;;;;;;;9.02;5.40;;;7.90;99.90;;;;;;5094052;28;20382;-72
2022/09/22 03:35:01;;;;;;;7.97;5.00;;;7.90;99.90;;;;;;5093863;28;20386;-73
2022/09/22 03:37:26;;;;;;;7.80;4.90;;;7.90;99.90;;;;;;5094457;28;20452;-71
2022/09/22 03:39:52;;;;;;;10.53;5.30;;;7.80;99.90;;;;;;5093812;28;20749;-73
2022/09/22 03:42:18;;;;;;;7.50;4.63;;;7.90;99.90;;;;;;5094168;28;20873;-73
2022/09/22 03:44:43;;;;;;;10.85;5.32;;;7.80;99.90;;;;;;5093950;28;20378;-75
2022/09/22 03:47:09;;;;;;;11.00;4.60;;;7.90;99.90;;;;;;5094343;28;20467;-72
2022/09/22 03:49:34;;;;;;;8.70;4.73;;;7.90;99.90;;;;;;5094158;28;20370;-73
2022/09/22 03:52:01;;;;;;;8.40;4.63;;;7.90;99.90;;;;;;5092205;28;20472;-74
2022/09/22 03:54:26;;;;;;;6.63;4.25;;;7.90;99.90;;;;;;5093683;28;20417;-73
2022/09/22 03:56:52;;;;;;;11.13;4.60;;;7.90;99.90;;;;;;5094533;28;20382;-73
2022/09/22 03:59:17;;;;;;;7.80;4.32;;;7.90;99.90;;;;;;5095416;28;20378;-73
2022/09/22 04:01:43;;;;;;;6.68;4.32;;;7.90;99.90;;;;;;5095204;28;20723;-73
2022/09/22 04:04:09;;;;;;;10.40;4.53;;;7.90;99.90;;;;;;5094768;28;20396;-72
2022/09/22 04:06:36;;;;;;;6.80;4.00;;;7.90;99.90;;;;;;5094132;28;20406;-72
2022/09/22 04:09:02;;;;;;;7.53;4.50;;;8.00;99.90;;;;;;5092552;28;20386;-71
2022/09/22 04:11:27;;;;;;;6.93;4.95;;;8.00;99.90;;;;;;5093868;28;20482;-71
2022/09/22 04:13:53;;;;;;;10.17;5.80;;;8.00;99.90;;;;;;5092746;28;20384;-70
2022/09/22 04:16:19;;;;;;;9.10;5.70;;;7.90;99.90;;;;;;5093399;28;20378;-73
2022/09/22 04:18:45;;;;;;;7.07;5.07;;;7.90;99.90;;;;;;5093424;28;20878;-71
2022/09/22 04:21:10;;;;;;;12.00;5.05;;;7.90;99.90;;;;;;5093164;28;20469;-72
2022/09/22 04:23:36;;;;;;;9.85;5.00;;;7.80;99.90;;;;;;5093594;28;20390;-72
2022/09/22 04:26:03;;;;;;;12.05;5.65;;;7.90;99.90;;;;;;5091853;28;20720;-72
2022/09/22 04:28:29;;;;;;;13.50;5.10;;;7.80;99.90;;;;;;5093559;28;20410;-71
2022/09/22 04:30:54;;;;;;;9.53;4.83;;;7.80;99.90;;;;;;5092309;28;20418;-72
2022/09/22 04:33:20;;;;;;;10.30;5.00;;;7.70;99.90;;;;;;5093054;28;20796;-72
2022/09/22 04:35:49;;;;;;;9.95;5.55;;;7.70;99.90;;;;;;5092933;28;20519;-72
2022/09/22 04:38:15;;;;;;;10.15;5.00;;;7.70;99.90;;;;;;5092806;28;20415;-72
2022/09/22 04:40:41;;;;;;;10.95;5.22;;;7.60;99.90;;;;;;5092563;28;20393;-72
2022/09/22 04:43:06;;;;;;;10.35;5.18;;;7.60;99.90;;;;;;5094328;28;20374;-71
2022/09/22 04:45:32;;;;;;;10.20;5.70;;;7.60;99.90;;;;;;5095925;28;20393;-72
2022/09/22 04:47:57;;;;;;;7.57;5.15;;;7.70;99.90;;;;;;5096002;28;20402;-72
2022/09/22 04:50:23;;;;;;;8.45;5.50;;;7.60;99.90;;;;;;5102507;28;20362;-72
2022/09/22 04:52:52;;;;;;;9.52;5.35;;;7.60;99.90;;;;;;5111859;28;20374;-71
2022/09/22 04:55:18;;;;;;;11.23;5.35;;;7.60;99.90;;;;;;5104785;28;20366;-72
2022/09/22 04:57:48;;;;;;;10.80;5.68;;;7.60;99.90;;;;;;5101616;28;20988;-71
2022/09/22 05:00:14;;;;;;;10.48;6.22;;;7.60;99.90;;;;;;5099828;28;20378;-71
2022/09/22 05:02:40;;;;;;;8.85;5.80;;;7.60;99.90;;;;;;5101323;28;20390;-72
2022/09/22 05:05:07;;;;;;;11.15;5.68;;;7.60;99.90;;;;;;5098946;28;20385;-72
2022/09/22 05:07:33;;;;;;;14.68;6.63;;;7.60;99.90;;;;;;5098435;28;20394;-72
2022/09/22 05:09:58;;;;;;;13.00;7.13;;;7.60;99.90;;;;;;5101366;28;20393;-72
2022/09/22 05:12:25;;;;;;;12.73;6.90;;;7.50;99.90;;;;;;5100744;28;20696;-71
2022/09/22 05:14:51;;;;;;;12.90;7.30;;;7.60;99.90;;;;;;5101342;28;20384;-71
2022/09/22 05:17:17;;;;;;;16.73;7.40;;;7.60;99.90;;;;;;5100285;28;20738;-71
2022/09/22 05:19:44;;;;;;;12.23;6.75;;;7.50;99.90;;;;;;5093832;28;20393;-72
2022/09/22 05:22:09;;;;;;;15.50;8.40;;;7.50;99.90;;;;;;5099708;28;20393;-73
2022/09/22 05:24:35;;;;;;;12.75;6.93;;;7.60;99.90;;;;;;5107446;28;20382;-71
2022/09/22 05:27:00;;;;;;;9.95;6.30;;;7.60;99.90;;;;;;5101435;28;20501;-71
2022/09/22 05:29:26;;;;;;;9.03;6.27;;;7.60;99.90;;;;;;5097726;28;20386;-72
2022/09/22 05:31:51;;;;;;;13.60;8.30;;;7.60;99.90;;;;;;5096993;28;20378;-71
2022/09/22 05:34:17;;;;;;;14.77;6.30;;;7.60;99.90;;;;;;5096402;28;20773;-73
2022/09/22 05:36:43;;;;;;;10.77;6.05;;;7.60;99.90;;;;;;5096781;28;20381;-72
2022/09/22 05:39:09;;;;;;;15.23;6.72;;;7.60;99.90;;;;;;5096812;28;20821;-71
2022/09/22 05:41:34;;;;;;;12.02;7.10;;;7.60;99.90;;;;;;5100414;28;20389;-71
2022/09/22 05:44:00;;;;;;;14.67;7.90;;;7.70;99.90;;;;;;5099699;28;20468;-74
2022/09/22 05:46:26;;;;;;;11.83;7.40;;;7.80;99.90;;;;;;5096069;28;20573;-72
2022/09/22 05:48:51;;;;;;;13.53;7.60;;;7.80;99.90;;;;;;5096494;28;20866;-71
2022/09/22 05:51:17;;;;;;;18.47;8.17;;;7.90;99.90;;;;;;5096195;28;20536;-71
2022/09/22 05:53:42;;;;;;;18.10;8.07;;;7.80;99.90;;;;;;5095797;28;20437;-71
2022/09/22 05:56:08;;;;;;;14.20;8.40;;;7.90;99.90;;;;;;5096067;28;20414;-71
2022/09/22 05:58:33;;;;;;;11.47;7.67;;;7.90;99.90;;;;;;5095437;28;20412;-73
2022/09/22 06:00:59;;;;;;;18.03;8.77;;;8.10;99.90;;;;;;5095561;28;20378;-73
2022/09/22 06:03:24;;;;;;;12.73;8.67;;;8.10;99.90;;;;;;5095168;28;20401;-73
2022/09/22 06:05:50;;;;;;;22.03;10.13;;;8.10;99.90;;;;;;5095960;28;20476;-72
2022/09/22 06:08:16;;;;;;;14.83;9.87;;;8.20;99.90;;;;;;5095254;28;20516;-72
2022/09/22 06:10:44;;;;;;;20.60;9.73;;;8.20;99.90;;;;;;5095928;28;20386;-72
2022/09/22 06:13:10;;;;;;;23.20;10.77;;;8.20;99.90;;;;;;5095623;28;20407;-72
2022/09/22 06:15:37;;;;;;;16.60;9.10;;;8.30;99.90;;;;;;5095381;28;20461;-72
2022/09/22 06:18:08;;;;;;;20.95;9.85;;;8.30;99.90;;;;;;5095014;28;20378;-72
2022/09/22 06:20:34;;;;;;;22.30;9.68;;;8.40;99.90;;;;;;5095762;28;20386;-73
2022/09/22 06:23:00;;;;;;;18.83;9.52;;;8.50;99.90;;;;;;5095320;28;20405;-71
2022/09/22 06:25:27;;;;;;;18.20;9.13;;;8.50;99.90;;;;;;5095524;28;20870;-73
2022/09/22 06:27:59;;;;;;;20.67;9.30;;;8.60;99.90;;;;;;5094924;28;20401;-72
2022/09/22 06:30:24;;;;;;;15.00;8.50;;;8.60;99.90;;;;;;5095091;28;20430;-72
2022/09/22 06:32:54;;;;;;;16.65;8.00;;;8.70;99.90;;;;;;5092909;28;20382;-71
2022/09/22 06:35:20;;;;;;;12.70;6.20;;;8.80;97.70;;;;;;5094759;28;20382;-71
2022/09/22 06:37:50;;;;;;;15.40;6.50;;;8.90;96.30;;;;;;5095043;28;20385;-72
2022/09/22 06:40:15;;;;;;;11.45;6.15;;;9.00;94.60;;;;;;5094480;28;20392;-72
2022/09/22 06:42:41;;;;;;;9.50;6.10;;;9.10;91.80;;;;;;5094869;28;20386;-73
2022/09/22 06:45:08;;;;;;;9.80;5.80;;;9.20;87.10;;;;;;5096405;28;20385;-73
2022/09/22 06:47:33;;;;;;;8.43;5.90;;;9.30;84.10;;;;;;5096747;28;20501;-73
2022/09/22 06:50:04;;;;;;;16.43;6.80;;;9.40;84.40;;;;;;5096602;28;20382;-73
2022/09/22 06:52:31;;;;;;;11.18;6.07;;;9.40;84.50;;;;;;5096561;28;20384;-72
2022/09/22 06:54:59;;;;;;;12.90;6.07;;;9.50;83.90;;;;;;5096983;28;20366;-73
2022/09/22 06:57:31;;;;;;;14.02;5.90;;;9.50;81.90;;;;;;5098216;28;20409;-73
2022/09/22 07:00:00;;;;;;;9.73;5.82;;;9.70;82.20;;;;;;5096737;28;20867;-70
2022/09/22 07:02:27;;;;;;;8.95;5.30;;;9.70;81.20;;;;;;5093684;28;20470;-73
2022/09/22 07:04:57;;;;;;;12.77;5.40;;;9.80;79.90;;;;;;5094145;28;20430;-72
2022/09/22 07:07:28;;;;;;;13.07;6.07;;;9.90;76.70;;;;;;5094172;28;20698;-72
2022/09/22 07:09:54;;;;;;;8.90;5.40;;;10.10;74.50;;;;;;5094403;28;20385;-71
2022/09/22 07:12:21;;;;;;;10.50;5.30;;;10.20;73.10;;;;;;5093481;28;20881;-71
2022/09/22 07:14:48;;;;;;;8.98;4.80;;;10.30;73.00;;;;;;5094111;28;20377;-72
2022/09/22 07:17:15;;;;;;;13.98;5.32;;;10.40;69.10;;;;;;5093614;28;20382;-72
2022/09/22 07:19:41;;;;;;;8.23;4.70;;;10.60;69.20;;;;;;5093808;28;20389;-72
2022/09/22 07:22:07;;;;;;;6.50;4.60;;;10.70;65.80;;;;;;5092544;28;20885;-71
2022/09/22 07:24:33;;;;;;;7.07;5.15;;;10.80;63.30;;;;;;5093999;28;20443;-72
2022/09/22 07:27:03;;;;;;;8.02;4.25;;;10.90;62.10;;;;;;5092570;28;20398;-72
2022/09/22 07:29:29;;;;;;;12.57;4.95;;;11.00;59.80;;;;;;5092671;28;20389;-72
2022/09/22 07:31:58;;;;;;;7.75;4.20;;;11.10;59.80;;;;;;5093134;28;20804;-72
2022/09/22 07:34:24;;;;;;;9.75;4.63;;;11.30;57.60;;;;;;5093639;28;20435;-71
2022/09/22 07:36:50;;;;;;;9.98;4.72;;;11.40;57.50;;;;;;5093211;28;20472;-71
2022/09/22 07:39:16;;;;;;;8.40;4.50;;;11.50;57.20;;;;;;5092471;28;20499;-71
2022/09/22 07:41:42;;;;;;;6.05;4.50;;;11.60;56.90;;;;;;5093258;28;20818;-72
2022/09/22 07:46:54;;;;;;;10.35;5.25;;;11.70;56.20;;;;;;5093389;28;20458;-72
2022/09/22 07:49:21;;;;;;;8.38;5.32;;;11.80;55.50;;;;;;5093802;28;20386;-72
2022/09/22 07:51:48;;;;;;;9.35;4.90;;;11.90;56.20;;;;;;5093007;28;20390;-72
2022/09/22 07:54:14;;;;;;;11.65;5.20;;;12.10;54.70;;;;;;5093141;28;20889;-72
2022/09/22 07:56:43;;;;;;;9.30;4.57;;;12.20;53.60;;;;;;5093231;28;20389;-73
2022/09/22 07:59:11;;;;;;;12.15;5.00;;;12.30;50.90;;;;;;5093229;28;20401;-72
2022/09/22 08:01:48;;;;;;;9.43;5.10;;;12.40;50.30;;;;;;5093241;28;20389;-71
2022/09/22 08:04:17;;;;;;;8.07;4.23;;;12.50;50.10;;;;;;5093646;28;20430;-73
2022/09/22 08:06:47;;;;;;;10.75;3.83;;;12.60;49.70;;;;;;5093154;28;20839;-71
2022/09/22 08:09:13;;;;;;;10.13;4.60;;;12.60;48.50;;;;;;5094626;28;20378;-73
2022/09/22 08:11:43;;;;;;;6.35;4.43;;;12.80;47.00;;;;;;5095084;28;20453;-72
2022/09/22 08:14:10;;;;;;;7.07;4.57;;;12.80;47.10;;;;;;5094914;28;20409;-73
2022/09/22 08:16:38;;;;;;;10.02;4.68;;;12.80;46.20;;;;;;5095675;28;20424;-72
2022/09/22 08:19:10;;;;;;;10.48;4.50;;;13.00;45.90;;;;;;5098867;28;20743;-73
2022/09/22 08:21:41;;;;;;;11.17;4.90;;;13.10;45.30;;;;;;5101384;28;20450;-73
2022/09/22 08:24:09;;;;;;;6.45;4.43;;;13.10;44.70;;;;;;5094862;28;20406;-72
2022/09/22 08:26:36;;;;;;;8.45;4.80;;;13.20;44.10;;;;;;5092561;28;20905;-74
2022/09/22 08:29:03;;;;;;;11.02;4.70;;;13.20;43.30;;;;;;5108451;28;20941;-72
2022/09/22 08:31:29;;;;;;;8.80;4.73;;;13.30;42.80;;;;;;5092692;28;20754;-72
2022/09/22 08:33:55;;;;;;;13.00;5.30;;;13.40;43.00;;;;;;5092656;28;20382;-72
2022/09/22 08:36:23;;;;;;;8.82;4.85;;;13.50;43.00;;;;;;5093063;28;20390;-72
2022/09/22 08:38:49;;;;;;;10.75;4.88;;;13.60;41.80;;;;;;5092503;28;20397;-73
2022/09/22 08:41:26;;;;;;;8.63;4.78;;;13.60;41.20;;;;;;5092133;28;20410;-71
2022/09/22 08:44:03;;;;;;;6.93;4.90;;;13.70;41.10;;;;;;5092246;28;20382;-73
2022/09/22 08:46:39;;;;;;;6.27;4.67;;;13.90;40.50;;;;;;5090531;28;20413;-72
2022/09/22 08:52:02;;;;;;;9.27;4.90;;;14.00;38.80;;;;;;5091539;28;20366;-71
2022/09/22 08:54:34;;;;;;;8.68;4.55;;;14.20;37.50;;;;;;5091527;28;20362;-72
2022/09/22 08:57:14;;;;;;;11.77;5.00;;;14.30;38.00;;;;;;5092006;28;20389;-72
2022/09/22 09:00:16;;;;;;;9.47;4.70;;;14.40;38.20;;;;;;5091509;28;20807;-72
2022/09/22 09:03:09;;;;;;;9.38;4.32;;;14.50;36.50;;;;;;4989040;28;20402;-70
2022/09/22 09:06:04;;;;;;;11.80;4.72;;;14.70;36.90;;;;;;5090370;28;20393;-73
2022/09/22 09:08:39;;;;;;;8.15;4.63;;;14.90;35.70;;;;;;5091379;28;20390;-73
2022/09/22 09:11:34;;;;;;;10.30;4.47;;;15.00;34.70;;;;;;5091551;28;20734;-71
2022/09/22 09:14:41;;;;;;;9.95;4.50;;;15.00;33.80;;;;;;5090991;28;20443;-72
2022/09/22 09:17:19;;;;;;;9.52;4.40;;;15.10;32.90;;;;;;5091493;28;20378;-72
2022/09/22 09:19:55;;;;;;;6.15;4.10;;;15.20;31.70;;;;;;5091339;28;20374;-70
2022/09/22 09:22:27;;;;;;;7.85;4.28;;;15.30;31.80;;;;;;5091108;28;20406;-71
2022/09/22 09:25:27;;;;;;;7.72;4.10;;;15.50;31.30;;;;;;5091318;28;20382;-70
2022/09/22 09:27:59;;;;;;;9.38;4.20;;;15.60;30.30;;;;;;5035488;28;20414;-73
2022/09/22 09:30:25;;;;;;;11.65;4.38;;;15.50;29.90;;;;;;5091163;28;20785;-72
2022/09/22 09:32:59;;;;;;;7.90;3.90;;;15.60;29.60;;;;;;5090965;28;20514;-73
2022/09/22 09:35:46;;;;;;;9.10;4.43;;;15.70;28.80;;;;;;5091480;28;20465;-74
2022/09/22 09:38:16;;;;;;;12.10;4.50;;;15.90;28.40;;;;;;5091344;28;20777;-73
2022/09/22 09:40:47;;;;;;;9.55;4.43;;;16.00;28.30;;;;;;5091059;28;20378;-71
2022/09/22 09:43:14;;;;;;;7.70;4.30;;;16.20;27.40;;;;;;5091423;28;20409;-72
2022/09/22 09:46:08;;;;;;;9.70;4.25;;;16.10;27.50;;;;;;5091148;28;20460;-72
2022/09/22 09:49:16;;;;;;;5.93;3.72;;;16.10;27.70;;;;;;5091150;28;20374;-72
2022/09/22 09:51:51;;;;;;;8.50;4.03;;;16.20;27.30;;;;;;4990226;28;20418;-71
2022/09/22 09:54:17;;;;;;;10.38;4.20;;;16.20;25.80;;;;;;5077744;28;20380;-73
2022/09/22 09:57:10;;;;;;;8.15;3.45;;;16.40;26.00;;;;;;5093521;28;20374;-73
2022/09/22 10:02:31;;;;;;;7.95;3.33;;;16.40;24.80;;;;;;5103174;22;20423;-73
2022/09/22 10:05:01;;;;;;;9.95;3.92;;;16.40;23.80;;;;;;5036362;28;20393;-74
2022/09/22 10:07:29;;;;;;;6.47;3.10;;;16.50;24.00;;;;;;5056672;28;20397;-73
2022/09/22 10:10:19;;;;;;;8.05;3.17;;;16.70;22.90;;;;;;5058584;28;20481;-74
2022/09/22 10:12:44;;;;;;;7.85;3.28;;;16.70;22.20;;;;;;5062768;28;20388;-74
2022/09/22 10:15:22;;;;;;;8.32;2.72;;;16.80;21.30;;;;;;5061937;28;20378;-73
2022/09/22 10:17:48;;;;;;;8.40;3.28;;;16.80;20.40;;;;;;5058417;28;20385;-74
2022/09/22 10:20:25;;;;;;;4.20;2.53;;;16.80;21.30;;;;;;5057436;28;20480;-74
2022/09/22 10:22:51;;;;;;;4.38;2.90;;;16.80;20.70;;;;;;5037826;28;20396;-73
2022/09/22 10:25:31;;;;;;;4.27;2.70;;;16.90;20.70;;;;;;5056089;28;20385;-74
2022/09/22 10:28:08;;;;;;;7.40;2.80;;;17.00;20.20;;;;;;5056991;28;20432;-73
2022/09/22 10:30:38;;;;;;;5.20;2.70;;;17.20;20.60;;;;;;5057234;28;20389;-75
2022/09/22 10:33:18;;;;;;;4.00;2.50;;;17.20;19.20;;;;;;5056280;28;20381;-74
2022/09/22 10:35:54;;;;;;;4.95;2.30;;;17.20;18.70;;;;;;5056808;28;20447;-74
2022/09/22 10:38:22;;;;;;;3.90;2.53;;;17.30;18.50;;;;;;5057264;28;20374;-72
2022/09/22 10:41:06;;;;;;;2.80;2.10;;;17.30;18.70;;;;;;5056958;28;20400;-73
2022/09/22 10:43:51;;;;;;;4.10;2.05;;;17.50;16.80;;;;;;5057797;28;20381;-75
2022/09/22 10:46:49;;;;;;;4.85;2.40;;;17.40;15.20;;;;;;5055898;28;20433;-75
2022/09/22 10:49:51;;;;;;;5.43;2.30;;;17.50;15.80;;;;;;5054881;28;20446;-72
2022/09/22 10:52:36;;;;;;;3.90;2.20;;;17.60;16.60;;;;;;5055724;28;20734;-73
2022/09/22 10:55:50;;;;;;;5.25;2.20;;;17.70;15.70;;;;;;5056329;28;20373;-73
2022/09/22 10:58:49;;;;;;;2.37;2.10;;;17.80;14.60;;;;;;5012128;28;20518;-73
2022/09/22 11:01:32;;;;;;;2.80;2.00;;;17.80;13.60;;;;;;5055747;28;20467;-73
2022/09/22 11:04:25;;;;;;;3.55;2.10;;;17.90;12.90;;;;;;5054405;28;20815;-73
2022/09/22 11:13:15;;;;;;;4.13;2.25;;;17.90;13.40;;;;;;5054804;28;20461;-73
2022/09/22 11:15:46;;;;;;;3.97;2.40;;;17.90;13.70;;;;;;5055603;28;20373;-73
2022/09/22 11:18:56;;;;;;;3.40;1.90;;;18.00;12.30;;;;;;5054668;28;20438;-73
2022/09/22 11:21:39;;;;;;;4.45;2.00;;;17.90;12.20;;;;;;5018006;28;20400;-75
2022/09/22 11:24:46;;;;;;;2.50;2.25;;;17.80;12.80;;;;;;5054972;28;20382;-74
2022/09/22 11:27:35;;;;;;;4.43;2.50;;;17.80;12.70;;;;;;5055441;28;20747;-72
2022/09/22 11:30:20;;;;;;;3.40;1.90;;;18.00;12.20;;;;;;5015253;28;20381;-73
2022/09/22 11:33:01;;;;;;;3.90;2.47;;;18.00;11.50;;;;;;5055067;28;20382;-73
2022/09/22 11:35:48;;;;;;;3.90;2.30;;;18.10;11.60;;;;;;5055463;28;20374;-74
2022/09/22 11:38:45;;;;;;;3.58;1.70;;;18.10;11.80;;;;;;5056308;28;20387;-75
2022/09/22 11:41:28;;;;;;;3.25;2.30;;;18.10;11.00;;;;;;5044839;28;20386;-75
2022/09/22 11:44:32;;;;;;;2.80;2.00;;;18.10;11.00;;;;;;5055340;28;20374;-76
2022/09/22 11:47:19;;;;;;;3.67;2.50;;;18.10;11.70;;;;;;5026145;28;20416;-74
2022/09/22 11:49:55;;;;;;;3.70;2.60;;;18.30;12.90;;;;;;5054523;28;20742;-74
2022/09/22 11:52:42;;;;;;;3.42;2.50;;;18.30;12.10;;;;;;5055199;28;20386;-72
2022/09/22 11:55:32;;;;;;;4.60;2.50;;;18.20;12.00;;;;;;5054794;28;20389;-74
2022/09/22 11:58:03;;;;;;;5.68;2.40;;;18.20;12.70;;;;;;5054838;28;20385;-75
2022/09/22 12:00:37;;;;;;;3.70;2.28;;;18.20;11.80;;;;;;5054987;28;20865;-74
2022/09/22 12:03:13;;;;;;;7.07;2.60;;;18.30;12.20;;;;;;5037310;28;20406;-74
2022/09/22 12:05:44;;;;;;;5.80;1.90;;;18.40;10.10;;;;;;5054748;28;20420;-73
2022/09/22 12:08:15;;;;;;;6.40;2.40;;;18.30;10.40;;;;;;5055551;28;20488;-75
2022/09/22 12:10:44;;;;;;;3.47;2.30;;;18.40;11.00;;;;;;5055129;28;20385;-73
2022/09/22 12:13:22;;;;;;;3.40;2.40;;;18.50;11.80;;;;;;5055139;28;20390;-74
2022/09/22 12:16:00;;;;;;;4.00;2.03;;;18.50;11.10;;;;;;5055472;28;20373;-76
2022/09/22 12:18:53;;;;;;;4.75;2.10;;;18.50;10.90;;;;;;5054611;28;20382;-74
2022/09/22 12:21:36;;;;;;;3.00;2.70;;;18.60;11.50;;;;;;5054829;28;20473;-74
2022/09/22 12:24:07;;;;;;;3.95;2.40;;;18.80;11.70;;;;;;5036613;28;20390;-74
2022/09/22 12:26:38;;;;;;;3.93;1.90;;;18.70;11.30;;;;;;5036781;28;20401;-74
2022/09/22 12:29:16;;;;;;;3.15;2.20;;;18.80;10.70;;;;;;5054638;28;20400;-73
2022/09/22 12:31:44;;;;;;;3.30;1.80;;;18.90;10.30;;;;;;5054103;28;20743;-73
2022/09/22 12:34:42;;;;;;;2.72;2.00;;;18.90;9.50;;;;;;5054128;28;20438;-73
2022/09/22 12:37:28;;;;;;;3.10;2.20;;;19.00;10.40;;;;;;5010432;28;20397;-74
2022/09/22 12:39:56;;;;;;;3.30;2.10;;;19.00;9.30;;;;;;5053654;28;20456;-73
2022/09/22 12:42:37;;;;;;;4.30;2.00;;;19.00;10.20;;;;;;5035242;28;20390;-74
2022/09/22 12:45:32;;;;;;;8.70;3.05;;;19.20;9.80;;;;;;5052897;28;20384;-73
2022/09/22 12:47:59;;;;;;;3.97;2.20;;;19.20;9.60;;;;;;5053811;28;20397;-74
2022/09/22 12:50:33;;;;;;;2.60;1.70;;;19.20;9.30;;;;;;5054779;28;20456;-75
2022/09/22 12:53:10;;;;;;;3.13;2.17;;;19.10;9.20;;;;;;5055109;28;20417;-75
2022/09/22 12:55:39;;;;;;;4.25;2.20;;;19.10;9.00;;;;;;5039287;28;20415;-74
2022/09/22 12:58:19;;;;;;;2.95;2.40;;;19.10;10.10;;;;;;5054765;28;20381;-75
2022/09/22 13:00:46;;;;;;;5.13;2.63;;;19.20;9.40;;;;;;5053693;28;20385;-74
2022/09/22 13:03:24;;;;;;;5.47;2.00;;;19.30;9.60;;;;;;5052945;28;20393;-74
2022/09/22 13:06:21;;;;;;;2.85;2.10;;;19.40;9.30;;;;;;5052945;28;20723;-74
2022/09/22 13:08:53;;;;;;;5.35;2.60;;;19.50;8.50;;;;;;5053499;28;20390;-73
2022/09/22 13:11:39;;;;;;;3.38;2.10;;;19.70;9.30;;;;;;5053186;28;20706;-73
2022/09/22 13:14:43;;;;;;;3.90;2.30;;;19.80;8.80;;;;;;5053708;28;20458;-75
2022/09/22 13:17:41;;;;;;;3.78;2.13;;;19.70;9.20;;;;;;5054006;28;20393;-74
2022/09/22 13:20:19;;;;;;;6.50;2.40;;;19.90;9.90;;;;;;5052304;28;20403;-74
2022/09/22 13:22:45;;;;;;;3.83;2.22;;;19.80;8.50;;;;;;5052500;28;20373;-76
2022/09/22 13:25:30;;;;;;;2.80;1.90;;;19.80;7.70;;;;;;5055704;28;20384;-74
2022/09/22 13:28:07;;;;;;;2.47;2.00;;;19.70;7.80;;;;;;5052182;28;20483;-75
2022/09/22 13:30:34;;;;;;;2.10;1.90;;;19.60;7.20;;;;;;5052856;28;20385;-72
2022/09/22 13:33:00;;;;;;;3.15;2.33;;;19.60;7.20;;;;;;5051832;28;20400;-76